sensor_id;sensor_type;location;lat;lon;timestamp;P1;durP1;ratioP1;P2;durP2;ratioP2
58250;SDS011;51449;51.676;5.812;2023-04-24T00:01:03;5.20;;;4.70;;
58250;SDS011;51449;51.676;5.812;2023-04-24T00:03:24;6.60;;;5.63;;
58250;SDS011;51449;51.676;5.812;2023-04-24T00:05:49;5.60;;;5.00;;
58250;SDS011;51449;51.676;5.812;2023-04-24T00:08:12;6.90;;;5.23;;
58250;SDS011;51449;51.676;5.812;2023-04-24T00:10:33;7.83;;;5.40;;
58250;SDS011;51449;51.676;5.812;2023-04-24T00:12:55;5.77;;;4.87;;
58250;SDS011;51449;51.676;5.812;2023-04-24T00:15:17;6.83;;;4.90;;
58250;SDS011;51449;51.676;5.812;2023-04-24T00:17:39;7.50;;;5.33;;
58250;SDS011;51449;51.676;5.812;2023-04-24T00:20:01;8.37;;;6.33;;
58250;SDS011;51449;51.676;5.812;2023-04-24T00:24:48;10.17;;;7.10;;
58250;SDS011;51449;51.676;5.812;2023-04-24T00:27:10;9.17;;;7.57;;
58250;SDS011;51449;51.676;5.812;2023-04-24T00:29:31;8.93;;;7.47;;
58250;SDS011;51449;51.676;5.812;2023-04-24T00:31:53;10.40;;;8.70;;
58250;SDS011;51449;51.676;5.812;2023-04-24T00:34:15;10.80;;;8.30;;
58250;SDS011;51449;51.676;5.812;2023-04-24T00:36:37;9.77;;;8.20;;
58250;SDS011;51449;51.676;5.812;2023-04-24T00:38:59;13.77;;;8.77;;
58250;SDS011;51449;51.676;5.812;2023-04-24T00:41:21;10.77;;;8.13;;
58250;SDS011;51449;51.676;5.812;2023-04-24T00:43:43;10.57;;;8.40;;
58250;SDS011;51449;51.676;5.812;2023-04-24T00:46:05;12.80;;;8.23;;
58250;SDS011;51449;51.676;5.812;2023-04-24T00:48:27;12.67;;;9.47;;
58250;SDS011;51449;51.676;5.812;2023-04-24T00:50:49;12.90;;;9.40;;
58250;SDS011;51449;51.676;5.812;2023-04-24T00:53:11;14.03;;;10.03;;
58250;SDS011;51449;51.676;5.812;2023-04-24T00:55:33;13.70;;;9.57;;
58250;SDS011;51449;51.676;5.812;2023-04-24T00:57:55;17.17;;;10.47;;
58250;SDS011;51449;51.676;5.812;2023-04-24T01:00:17;14.97;;;10.37;;
58250;SDS011;51449;51.676;5.812;2023-04-24T01:02:40;14.43;;;9.93;;
58250;SDS011;51449;51.676;5.812;2023-04-24T01:05:07;19.03;;;11.43;;
58250;SDS011;51449;51.676;5.812;2023-04-24T01:07:29;18.03;;;11.33;;
58250;SDS011;51449;51.676;5.812;2023-04-24T01:09:52;18.20;;;12.20;;
58250;SDS011;51449;51.676;5.812;2023-04-24T01:12:14;17.87;;;12.03;;
58250;SDS011;51449;51.676;5.812;2023-04-24T01:14:38;18.70;;;11.80;;
58250;SDS011;51449;51.676;5.812;2023-04-24T01:17:02;18.58;;;12.75;;
58250;SDS011;51449;51.676;5.812;2023-04-24T01:19:23;19.23;;;12.00;;
58250;SDS011;51449;51.676;5.812;2023-04-24T01:21:45;18.33;;;12.70;;
58250;SDS011;51449;51.676;5.812;2023-04-24T01:24:12;19.30;;;12.40;;
58250;SDS011;51449;51.676;5.812;2023-04-24T01:26:34;17.43;;;12.83;;
58250;SDS011;51449;51.676;5.812;2023-04-24T01:28:56;18.97;;;12.13;;
58250;SDS011;51449;51.676;5.812;2023-04-24T01:31:18;16.40;;;12.90;;
58250;SDS011;51449;51.676;5.812;2023-04-24T01:33:41;18.87;;;12.27;;
58250;SDS011;51449;51.676;5.812;2023-04-24T01:36:03;22.90;;;13.23;;
58250;SDS011;51449;51.676;5.812;2023-04-24T01:38:26;19.23;;;14.07;;
58250;SDS011;51449;51.676;5.812;2023-04-24T01:40:48;19.17;;;13.17;;
58250;SDS011;51449;51.676;5.812;2023-04-24T01:43:12;19.58;;;12.75;;
58250;SDS011;51449;51.676;5.812;2023-04-24T01:45:34;21.13;;;13.70;;
58250;SDS011;51449;51.676;5.812;2023-04-24T01:47:58;20.47;;;13.73;;
58250;SDS011;51449;51.676;5.812;2023-04-24T01:50:22;18.88;;;12.90;;
58250;SDS011;51449;51.676;5.812;2023-04-24T01:52:44;23.90;;;14.13;;
58250;SDS011;51449;51.676;5.812;2023-04-24T01:55:06;19.33;;;13.63;;
58250;SDS011;51449;51.676;5.812;2023-04-24T01:57:29;21.53;;;13.40;;
58250;SDS011;51449;51.676;5.812;2023-04-24T01:59:52;23.60;;;15.02;;
58250;SDS011;51449;51.676;5.812;2023-04-24T02:02:14;21.40;;;14.40;;
58250;SDS011;51449;51.676;5.812;2023-04-24T02:04:36;18.23;;;13.97;;
58250;SDS011;51449;51.676;5.812;2023-04-24T02:06:58;21.13;;;14.17;;
58250;SDS011;51449;51.676;5.812;2023-04-24T02:09:20;21.80;;;14.27;;
58250;SDS011;51449;51.676;5.812;2023-04-24T02:11:41;21.20;;;15.20;;
58250;SDS011;51449;51.676;5.812;2023-04-24T02:14:03;24.40;;;14.87;;
58250;SDS011;51449;51.676;5.812;2023-04-24T02:16:25;28.80;;;15.90;;
58250;SDS011;51449;51.676;5.812;2023-04-24T02:18:47;23.93;;;16.17;;
58250;SDS011;51449;51.676;5.812;2023-04-24T02:21:09;25.17;;;16.27;;
58250;SDS011;51449;51.676;5.812;2023-04-24T02:23:31;28.53;;;17.63;;
58250;SDS011;51449;51.676;5.812;2023-04-24T02:25:53;30.20;;;17.70;;
58250;SDS011;51449;51.676;5.812;2023-04-24T02:28:15;29.43;;;17.80;;
58250;SDS011;51449;51.676;5.812;2023-04-24T02:30:36;28.10;;;18.03;;
58250;SDS011;51449;51.676;5.812;2023-04-24T02:32:58;29.30;;;19.27;;
58250;SDS011;51449;51.676;5.812;2023-04-24T02:35:21;26.93;;;17.17;;
58250;SDS011;51449;51.676;5.812;2023-04-24T02:37:43;29.00;;;19.17;;
58250;SDS011;51449;51.676;5.812;2023-04-24T02:40:06;30.90;;;17.87;;
58250;SDS011;51449;51.676;5.812;2023-04-24T02:42:29;30.50;;;20.07;;
58250;SDS011;51449;51.676;5.812;2023-04-24T02:44:51;25.57;;;18.03;;
58250;SDS011;51449;51.676;5.812;2023-04-24T02:47:13;27.67;;;19.07;;
58250;SDS011;51449;51.676;5.812;2023-04-24T02:49:34;27.07;;;18.23;;
58250;SDS011;51449;51.676;5.812;2023-04-24T02:51:56;27.83;;;19.17;;
58250;SDS011;51449;51.676;5.812;2023-04-24T02:54:18;31.03;;;18.43;;
58250;SDS011;51449;51.676;5.812;2023-04-24T02:56:39;30.10;;;18.47;;
58250;SDS011;51449;51.676;5.812;2023-04-24T02:59:02;26.97;;;18.17;;
58250;SDS011;51449;51.676;5.812;2023-04-24T03:01:24;30.30;;;19.17;;
58250;SDS011;51449;51.676;5.812;2023-04-24T03:03:46;28.17;;;18.17;;
58250;SDS011;51449;51.676;5.812;2023-04-24T03:06:08;29.27;;;19.43;;
58250;SDS011;51449;51.676;5.812;2023-04-24T03:08:30;28.03;;;17.77;;
58250;SDS011;51449;51.676;5.812;2023-04-24T03:10:52;31.33;;;18.93;;
58250;SDS011;51449;51.676;5.812;2023-04-24T03:13:13;29.97;;;18.93;;
58250;SDS011;51449;51.676;5.812;2023-04-24T03:15:37;28.58;;;18.63;;
58250;SDS011;51449;51.676;5.812;2023-04-24T03:17:59;30.20;;;18.60;;
58250;SDS011;51449;51.676;5.812;2023-04-24T03:20:21;29.33;;;18.77;;
58250;SDS011;51449;51.676;5.812;2023-04-24T03:22:43;29.20;;;17.27;;
58250;SDS011;51449;51.676;5.812;2023-04-24T03:25:05;24.67;;;17.17;;
58250;SDS011;51449;51.676;5.812;2023-04-24T03:27:29;28.45;;;18.98;;
58250;SDS011;51449;51.676;5.812;2023-04-24T03:29:57;28.77;;;17.83;;
58250;SDS011;51449;51.676;5.812;2023-04-24T03:32:27;28.50;;;17.90;;
58250;SDS011;51449;51.676;5.812;2023-04-24T03:34:49;26.17;;;16.50;;
58250;SDS011;51449;51.676;5.812;2023-04-24T03:37:12;29.83;;;18.77;;
58250;SDS011;51449;51.676;5.812;2023-04-24T03:39:37;26.70;;;17.43;;
58250;SDS011;51449;51.676;5.812;2023-04-24T03:41:59;29.03;;;17.43;;
58250;SDS011;51449;51.676;5.812;2023-04-24T03:44:32;26.03;;;17.77;;
58250;SDS011;51449;51.676;5.812;2023-04-24T03:46:54;28.07;;;16.73;;
58250;SDS011;51449;51.676;5.812;2023-04-24T03:49:18;27.15;;;16.95;;
58250;SDS011;51449;51.676;5.812;2023-04-24T03:51:41;23.47;;;17.03;;
58250;SDS011;51449;51.676;5.812;2023-04-24T03:54:11;28.10;;;17.40;;
58250;SDS011;51449;51.676;5.812;2023-04-24T03:56:34;25.10;;;16.73;;
58250;SDS011;51449;51.676;5.812;2023-04-24T03:58:55;25.67;;;16.27;;
58250;SDS011;51449;51.676;5.812;2023-04-24T04:01:17;28.13;;;16.60;;
58250;SDS011;51449;51.676;5.812;2023-04-24T04:03:45;22.87;;;15.33;;
58250;SDS011;51449;51.676;5.812;2023-04-24T04:06:11;22.53;;;15.80;;
58250;SDS011;51449;51.676;5.812;2023-04-24T04:08:34;24.30;;;16.30;;
58250;SDS011;51449;51.676;5.812;2023-04-24T04:10:56;24.93;;;16.93;;
58250;SDS011;51449;51.676;5.812;2023-04-24T04:13:18;24.50;;;15.03;;
58250;SDS011;51449;51.676;5.812;2023-04-24T04:15:40;22.47;;;14.57;;
58250;SDS011;51449;51.676;5.812;2023-04-24T04:18:02;23.57;;;15.20;;
58250;SDS011;51449;51.676;5.812;2023-04-24T04:20:24;22.60;;;14.20;;
58250;SDS011;51449;51.676;5.812;2023-04-24T04:22:46;19.70;;;14.10;;
58250;SDS011;51449;51.676;5.812;2023-04-24T04:25:14;26.57;;;15.17;;
58250;SDS011;51449;51.676;5.812;2023-04-24T04:27:37;22.43;;;14.17;;
58250;SDS011;51449;51.676;5.812;2023-04-24T04:30:04;20.70;;;14.33;;
58250;SDS011;51449;51.676;5.812;2023-04-24T04:32:35;19.53;;;14.10;;
58250;SDS011;51449;51.676;5.812;2023-04-24T04:34:58;22.00;;;13.53;;
58250;SDS011;51449;51.676;5.812;2023-04-24T04:37:26;21.37;;;14.00;;
58250;SDS011;51449;51.676;5.812;2023-04-24T04:40:00;19.30;;;13.38;;
58250;SDS011;51449;51.676;5.812;2023-04-24T04:42:33;18.57;;;12.87;;
58250;SDS011;51449;51.676;5.812;2023-04-24T04:44:55;18.20;;;13.10;;
58250;SDS011;51449;51.676;5.812;2023-04-24T04:47:26;20.47;;;13.07;;
58250;SDS011;51449;51.676;5.812;2023-04-24T04:52:16;19.60;;;12.23;;
58250;SDS011;51449;51.676;5.812;2023-04-24T04:54:41;19.10;;;13.80;;
58250;SDS011;51449;51.676;5.812;2023-04-24T04:57:05;18.83;;;12.93;;
58250;SDS011;51449;51.676;5.812;2023-04-24T04:59:30;17.97;;;11.60;;
58250;SDS011;51449;51.676;5.812;2023-04-24T05:01:57;19.93;;;13.00;;
58250;SDS011;51449;51.676;5.812;2023-04-24T05:04:19;17.97;;;12.87;;
58250;SDS011;51449;51.676;5.812;2023-04-24T05:06:41;20.73;;;12.60;;
58250;SDS011;51449;51.676;5.812;2023-04-24T05:09:03;15.83;;;11.93;;
58250;SDS011;51449;51.676;5.812;2023-04-24T05:11:38;18.23;;;12.50;;
58250;SDS011;51449;51.676;5.812;2023-04-24T05:13:59;16.93;;;11.47;;
58250;SDS011;51449;51.676;5.812;2023-04-24T05:16:28;18.20;;;11.53;;
58250;SDS011;51449;51.676;5.812;2023-04-24T05:18:52;15.40;;;11.02;;
58250;SDS011;51449;51.676;5.812;2023-04-24T05:21:19;16.83;;;11.10;;
58250;SDS011;51449;51.676;5.812;2023-04-24T05:23:44;16.37;;;10.80;;
58250;SDS011;51449;51.676;5.812;2023-04-24T05:26:14;15.43;;;9.87;;
58250;SDS011;51449;51.676;5.812;2023-04-24T05:28:36;13.87;;;9.60;;
58250;SDS011;51449;51.676;5.812;2023-04-24T05:31:02;13.67;;;10.07;;
58250;SDS011;51449;51.676;5.812;2023-04-24T05:33:24;13.13;;;9.80;;
58250;SDS011;51449;51.676;5.812;2023-04-24T05:35:46;12.03;;;9.53;;
58250;SDS011;51449;51.676;5.812;2023-04-24T05:38:09;12.63;;;9.70;;
58250;SDS011;51449;51.676;5.812;2023-04-24T05:40:30;12.07;;;9.13;;
58250;SDS011;51449;51.676;5.812;2023-04-24T05:42:53;12.03;;;8.63;;
58250;SDS011;51449;51.676;5.812;2023-04-24T05:45:14;13.80;;;9.33;;
58250;SDS011;51449;51.676;5.812;2023-04-24T05:47:38;12.73;;;9.20;;
58250;SDS011;51449;51.676;5.812;2023-04-24T05:49:59;12.93;;;9.17;;
58250;SDS011;51449;51.676;5.812;2023-04-24T05:52:21;14.77;;;9.40;;
58250;SDS011;51449;51.676;5.812;2023-04-24T05:54:43;12.57;;;9.37;;
58250;SDS011;51449;51.676;5.812;2023-04-24T05:57:07;12.55;;;9.35;;
58250;SDS011;51449;51.676;5.812;2023-04-24T05:59:43;13.33;;;9.47;;
58250;SDS011;51449;51.676;5.812;2023-04-24T06:02:05;13.10;;;8.80;;
58250;SDS011;51449;51.676;5.812;2023-04-24T06:04:28;11.90;;;9.03;;
58250;SDS011;51449;51.676;5.812;2023-04-24T06:06:52;12.40;;;9.35;;
58250;SDS011;51449;51.676;5.812;2023-04-24T06:09:17;14.83;;;9.20;;
58250;SDS011;51449;51.676;5.812;2023-04-24T06:11:39;12.47;;;8.93;;
58250;SDS011;51449;51.676;5.812;2023-04-24T06:16:31;10.93;;;8.10;;
58250;SDS011;51449;51.676;5.812;2023-04-24T06:18:59;11.03;;;8.00;;
58250;SDS011;51449;51.676;5.812;2023-04-24T06:21:21;9.37;;;6.20;;
58250;SDS011;51449;51.676;5.812;2023-04-24T06:23:42;10.27;;;6.50;;
58250;SDS011;51449;51.676;5.812;2023-04-24T06:26:04;7.87;;;6.03;;
58250;SDS011;51449;51.676;5.812;2023-04-24T06:28:26;7.97;;;4.70;;
58250;SDS011;51449;51.676;5.812;2023-04-24T06:30:48;7.10;;;4.87;;
58250;SDS011;51449;51.676;5.812;2023-04-24T06:33:09;4.87;;;3.70;;
58250;SDS011;51449;51.676;5.812;2023-04-24T06:35:42;4.93;;;3.23;;
58250;SDS011;51449;51.676;5.812;2023-04-24T06:38:04;3.63;;;2.80;;
58250;SDS011;51449;51.676;5.812;2023-04-24T06:40:26;3.47;;;2.30;;
58250;SDS011;51449;51.676;5.812;2023-04-24T06:42:47;2.70;;;2.10;;
58250;SDS011;51449;51.676;5.812;2023-04-24T06:45:09;2.50;;;1.80;;
58250;SDS011;51449;51.676;5.812;2023-04-24T06:47:31;3.10;;;2.03;;
58250;SDS011;51449;51.676;5.812;2023-04-24T06:49:53;3.63;;;2.20;;
58250;SDS011;51449;51.676;5.812;2023-04-24T06:52:16;1.97;;;1.70;;
58250;SDS011;51449;51.676;5.812;2023-04-24T06:54:37;2.73;;;1.60;;
58250;SDS011;51449;51.676;5.812;2023-04-24T06:56:59;2.17;;;1.40;;
58250;SDS011;51449;51.676;5.812;2023-04-24T06:59:22;1.93;;;1.50;;
58250;SDS011;51449;51.676;5.812;2023-04-24T07:01:45;2.60;;;2.00;;
58250;SDS011;51449;51.676;5.812;2023-04-24T07:04:07;1.67;;;1.27;;
58250;SDS011;51449;51.676;5.812;2023-04-24T07:06:29;1.83;;;1.00;;
58250;SDS011;51449;51.676;5.812;2023-04-24T07:08:53;2.17;;;1.00;;
58250;SDS011;51449;51.676;5.812;2023-04-24T07:11:15;1.30;;;0.90;;
58250;SDS011;51449;51.676;5.812;2023-04-24T07:13:37;2.03;;;1.00;;
58250;SDS011;51449;51.676;5.812;2023-04-24T07:16:03;2.07;;;1.40;;
58250;SDS011;51449;51.676;5.812;2023-04-24T07:18:25;2.97;;;1.50;;
58250;SDS011;51449;51.676;5.812;2023-04-24T07:20:46;2.47;;;1.57;;
58250;SDS011;51449;51.676;5.812;2023-04-24T07:23:08;1.93;;;1.70;;
58250;SDS011;51449;51.676;5.812;2023-04-24T07:25:30;1.37;;;1.00;;
58250;SDS011;51449;51.676;5.812;2023-04-24T07:27:53;1.30;;;1.20;;
58250;SDS011;51449;51.676;5.812;2023-04-24T07:30:15;1.50;;;1.40;;
58250;SDS011;51449;51.676;5.812;2023-04-24T07:32:37;1.97;;;1.73;;
58250;SDS011;51449;51.676;5.812;2023-04-24T07:35:00;5.27;;;3.77;;
58250;SDS011;51449;51.676;5.812;2023-04-24T07:37:22;5.57;;;3.37;;
58250;SDS011;51449;51.676;5.812;2023-04-24T07:39:44;4.90;;;4.40;;
58250;SDS011;51449;51.676;5.812;2023-04-24T07:42:06;6.73;;;5.67;;
58250;SDS011;51449;51.676;5.812;2023-04-24T07:44:28;9.20;;;6.10;;
58250;SDS011;51449;51.676;5.812;2023-04-24T07:46:50;9.23;;;6.73;;
58250;SDS011;51449;51.676;5.812;2023-04-24T07:49:12;10.57;;;7.63;;
58250;SDS011;51449;51.676;5.812;2023-04-24T07:51:36;12.77;;;8.52;;
58250;SDS011;51449;51.676;5.812;2023-04-24T07:56:23;13.77;;;8.27;;
58250;SDS011;51449;51.676;5.812;2023-04-24T08:01:09;18.10;;;10.57;;
58250;SDS011;51449;51.676;5.812;2023-04-24T08:03:33;17.77;;;9.93;;
58250;SDS011;51449;51.676;5.812;2023-04-24T08:05:55;16.77;;;9.50;;
58250;SDS011;51449;51.676;5.812;2023-04-24T08:08:17;14.90;;;9.60;;
58250;SDS011;51449;51.676;5.812;2023-04-24T08:10:39;18.07;;;9.63;;
58250;SDS011;51449;51.676;5.812;2023-04-24T08:13:00;16.30;;;9.00;;
58250;SDS011;51449;51.676;5.812;2023-04-24T08:15:22;11.53;;;8.27;;
58250;SDS011;51449;51.676;5.812;2023-04-24T08:17:44;12.83;;;8.70;;
58250;SDS011;51449;51.676;5.812;2023-04-24T08:20:06;14.70;;;8.40;;
58250;SDS011;51449;51.676;5.812;2023-04-24T08:22:34;13.87;;;8.07;;
58250;SDS011;51449;51.676;5.812;2023-04-24T08:24:56;13.30;;;8.43;;
58250;SDS011;51449;51.676;5.812;2023-04-24T08:27:18;14.90;;;8.07;;
58250;SDS011;51449;51.676;5.812;2023-04-24T08:29:40;19.23;;;9.47;;
58250;SDS011;51449;51.676;5.812;2023-04-24T08:32:02;14.37;;;8.37;;
58250;SDS011;51449;51.676;5.812;2023-04-24T08:34:24;18.83;;;8.13;;
58250;SDS011;51449;51.676;5.812;2023-04-24T08:36:46;15.37;;;8.40;;
58250;SDS011;51449;51.676;5.812;2023-04-24T08:39:08;15.53;;;8.40;;
58250;SDS011;51449;51.676;5.812;2023-04-24T08:41:30;18.43;;;9.30;;
58250;SDS011;51449;51.676;5.812;2023-04-24T08:43:53;16.00;;;7.80;;
58250;SDS011;51449;51.676;5.812;2023-04-24T08:46:16;20.20;;;9.00;;
58250;SDS011;51449;51.676;5.812;2023-04-24T08:48:40;12.85;;;7.95;;
58250;SDS011;51449;51.676;5.812;2023-04-24T08:51:01;17.00;;;8.33;;
58250;SDS011;51449;51.676;5.812;2023-04-24T08:53:27;13.53;;;6.23;;
58250;SDS011;51449;51.676;5.812;2023-04-24T08:55:49;10.17;;;5.00;;
58250;SDS011;51449;51.676;5.812;2023-04-24T08:58:13;11.27;;;4.47;;
58250;SDS011;51449;51.676;5.812;2023-04-24T09:00:37;10.55;;;4.32;;
58250;SDS011;51449;51.676;5.812;2023-04-24T09:03:01;9.98;;;5.32;;
58250;SDS011;51449;51.676;5.812;2023-04-24T09:05:27;8.63;;;3.90;;
58250;SDS011;51449;51.676;5.812;2023-04-24T09:07:53;12.43;;;4.03;;
58250;SDS011;51449;51.676;5.812;2023-04-24T09:10:16;9.77;;;4.30;;
58250;SDS011;51449;51.676;5.812;2023-04-24T09:12:38;10.60;;;4.47;;
58250;SDS011;51449;51.676;5.812;2023-04-24T09:15:01;11.27;;;4.27;;
58250;SDS011;51449;51.676;5.812;2023-04-24T09:17:24;11.27;;;4.40;;
58250;SDS011;51449;51.676;5.812;2023-04-24T09:19:48;12.57;;;4.40;;
58250;SDS011;51449;51.676;5.812;2023-04-24T09:22:11;9.60;;;3.90;;
58250;SDS011;51449;51.676;5.812;2023-04-24T09:24:33;12.43;;;4.20;;
58250;SDS011;51449;51.676;5.812;2023-04-24T09:26:56;12.00;;;4.13;;
58250;SDS011;51449;51.676;5.812;2023-04-24T09:29:20;16.33;;;4.55;;
58250;SDS011;51449;51.676;5.812;2023-04-24T09:31:42;13.97;;;4.27;;
58250;SDS011;51449;51.676;5.812;2023-04-24T09:34:04;11.97;;;3.67;;
58250;SDS011;51449;51.676;5.812;2023-04-24T09:36:29;12.18;;;4.03;;
58250;SDS011;51449;51.676;5.812;2023-04-24T09:39:01;14.33;;;4.30;;
58250;SDS011;51449;51.676;5.812;2023-04-24T09:41:24;11.70;;;3.40;;
58250;SDS011;51449;51.676;5.812;2023-04-24T09:43:48;8.98;;;3.35;;
58250;SDS011;51449;51.676;5.812;2023-04-24T09:46:10;9.90;;;3.50;;
58250;SDS011;51449;51.676;5.812;2023-04-24T09:48:35;14.47;;;3.30;;
58250;SDS011;51449;51.676;5.812;2023-04-24T09:50:59;9.77;;;2.93;;
58250;SDS011;51449;51.676;5.812;2023-04-24T09:53:24;11.70;;;3.90;;
58250;SDS011;51449;51.676;5.812;2023-04-24T09:55:47;8.33;;;2.90;;
58250;SDS011;51449;51.676;5.812;2023-04-24T09:58:10;11.03;;;3.07;;
58250;SDS011;51449;51.676;5.812;2023-04-24T10:00:32;6.90;;;2.77;;
58250;SDS011;51449;51.676;5.812;2023-04-24T10:02:56;7.07;;;3.17;;
58250;SDS011;51449;51.676;5.812;2023-04-24T10:05:30;9.43;;;2.67;;
58250;SDS011;51449;51.676;5.812;2023-04-24T10:07:59;6.70;;;2.53;;
58250;SDS011;51449;51.676;5.812;2023-04-24T10:10:33;6.47;;;2.40;;
58250;SDS011;51449;51.676;5.812;2023-04-24T10:13:00;6.53;;;2.63;;
58250;SDS011;51449;51.676;5.812;2023-04-24T10:15:22;6.70;;;2.47;;
58250;SDS011;51449;51.676;5.812;2023-04-24T10:17:46;8.67;;;2.67;;
58250;SDS011;51449;51.676;5.812;2023-04-24T10:20:13;5.83;;;2.40;;
58250;SDS011;51449;51.676;5.812;2023-04-24T10:22:35;6.83;;;2.60;;
58250;SDS011;51449;51.676;5.812;2023-04-24T10:24:58;8.53;;;2.63;;
58250;SDS011;51449;51.676;5.812;2023-04-24T10:27:20;6.37;;;2.60;;
58250;SDS011;51449;51.676;5.812;2023-04-24T10:29:44;8.15;;;3.25;;
58250;SDS011;51449;51.676;5.812;2023-04-24T10:32:09;7.23;;;2.60;;
58250;SDS011;51449;51.676;5.812;2023-04-24T10:34:32;8.75;;;2.85;;
58250;SDS011;51449;51.676;5.812;2023-04-24T10:36:54;10.63;;;2.80;;
58250;SDS011;51449;51.676;5.812;2023-04-24T10:39:18;4.82;;;2.20;;
58250;SDS011;51449;51.676;5.812;2023-04-24T10:41:48;7.33;;;2.30;;
58250;SDS011;51449;51.676;5.812;2023-04-24T10:44:12;8.67;;;2.80;;
58250;SDS011;51449;51.676;5.812;2023-04-24T10:46:36;6.40;;;2.60;;
58250;SDS011;51449;51.676;5.812;2023-04-24T10:49:03;6.57;;;2.50;;
58250;SDS011;51449;51.676;5.812;2023-04-24T10:54:33;6.15;;;1.88;;
58250;SDS011;51449;51.676;5.812;2023-04-24T10:59:43;5.17;;;1.77;;
58250;SDS011;51449;51.676;5.812;2023-04-24T11:02:06;3.17;;;1.50;;
58250;SDS011;51449;51.676;5.812;2023-04-24T11:04:30;4.78;;;1.45;;
58250;SDS011;51449;51.676;5.812;2023-04-24T11:06:53;4.65;;;1.52;;
58250;SDS011;51449;51.676;5.812;2023-04-24T11:09:15;3.93;;;1.50;;
58250;SDS011;51449;51.676;5.812;2023-04-24T11:11:38;5.33;;;1.57;;
58250;SDS011;51449;51.676;5.812;2023-04-24T11:14:07;4.20;;;2.30;;
58250;SDS011;51449;51.676;5.812;2023-04-24T11:16:46;4.90;;;1.40;;
58250;SDS011;51449;51.676;5.812;2023-04-24T11:21:40;4.43;;;1.30;;
58250;SDS011;51449;51.676;5.812;2023-04-24T11:37:43;2.23;;;1.23;;
58250;SDS011;51449;51.676;5.812;2023-04-24T11:40:19;3.27;;;1.20;;
58250;SDS011;51449;51.676;5.812;2023-04-24T11:42:45;2.50;;;1.00;;
58250;SDS011;51449;51.676;5.812;2023-04-24T11:47:35;2.60;;;1.00;;
58250;SDS011;51449;51.676;5.812;2023-04-24T11:49:58;2.70;;;1.20;;
58250;SDS011;51449;51.676;5.812;2023-04-24T11:52:22;5.57;;;1.40;;
58250;SDS011;51449;51.676;5.812;2023-04-24T11:54:48;4.03;;;1.10;;
58250;SDS011;51449;51.676;5.812;2023-04-24T11:57:11;3.17;;;1.40;;
58250;SDS011;51449;51.676;5.812;2023-04-24T11:59:36;1.63;;;1.20;;
58250;SDS011;51449;51.676;5.812;2023-04-24T12:01:59;5.90;;;1.20;;
58250;SDS011;51449;51.676;5.812;2023-04-24T12:04:21;2.30;;;1.07;;
58250;SDS011;51449;51.676;5.812;2023-04-24T12:06:59;3.27;;;1.23;;
58250;SDS011;51449;51.676;5.812;2023-04-24T12:09:22;2.90;;;1.30;;
58250;SDS011;51449;51.676;5.812;2023-04-24T12:11:55;4.18;;;1.45;;
58250;SDS011;51449;51.676;5.812;2023-04-24T12:14:21;5.10;;;1.50;;
58250;SDS011;51449;51.676;5.812;2023-04-24T12:16:46;4.47;;;1.77;;
58250;SDS011;51449;51.676;5.812;2023-04-24T12:19:10;3.07;;;1.50;;
58250;SDS011;51449;51.676;5.812;2023-04-24T12:21:31;5.67;;;2.00;;
58250;SDS011;51449;51.676;5.812;2023-04-24T12:23:54;4.30;;;1.60;;
58250;SDS011;51449;51.676;5.812;2023-04-24T12:26:19;4.57;;;1.67;;
58250;SDS011;51449;51.676;5.812;2023-04-24T12:28:45;5.20;;;2.20;;
58250;SDS011;51449;51.676;5.812;2023-04-24T12:31:10;5.43;;;1.90;;
58250;SDS011;51449;51.676;5.812;2023-04-24T12:33:33;5.43;;;1.80;;
58250;SDS011;51449;51.676;5.812;2023-04-24T12:35:56;4.63;;;1.58;;
58250;SDS011;51449;51.676;5.812;2023-04-24T12:38:21;4.27;;;1.60;;
58250;SDS011;51449;51.676;5.812;2023-04-24T12:40:47;2.90;;;1.60;;
58250;SDS011;51449;51.676;5.812;2023-04-24T12:43:16;3.10;;;1.77;;
58250;SDS011;51449;51.676;5.812;2023-04-24T12:45:40;3.77;;;1.90;;
58250;SDS011;51449;51.676;5.812;2023-04-24T12:48:02;4.80;;;2.30;;
58250;SDS011;51449;51.676;5.812;2023-04-24T12:50:24;7.13;;;1.83;;
58250;SDS011;51449;51.676;5.812;2023-04-24T12:52:46;4.07;;;1.90;;
58250;SDS011;51449;51.676;5.812;2023-04-24T12:55:08;2.87;;;1.70;;
58250;SDS011;51449;51.676;5.812;2023-04-24T12:57:30;5.00;;;1.90;;
58250;SDS011;51449;51.676;5.812;2023-04-24T12:59:53;3.77;;;2.00;;
58250;SDS011;51449;51.676;5.812;2023-04-24T13:02:17;5.63;;;1.90;;
58250;SDS011;51449;51.676;5.812;2023-04-24T13:04:39;5.30;;;1.97;;
58250;SDS011;51449;51.676;5.812;2023-04-24T13:07:01;5.03;;;2.60;;
58250;SDS011;51449;51.676;5.812;2023-04-24T13:09:23;6.17;;;1.80;;
58250;SDS011;51449;51.676;5.812;2023-04-24T13:11:45;5.47;;;2.40;;
58250;SDS011;51449;51.676;5.812;2023-04-24T13:14:07;6.37;;;2.60;;
58250;SDS011;51449;51.676;5.812;2023-04-24T13:16:28;4.27;;;2.07;;
58250;SDS011;51449;51.676;5.812;2023-04-24T13:18:51;4.90;;;2.20;;
58250;SDS011;51449;51.676;5.812;2023-04-24T13:21:12;3.83;;;1.93;;
58250;SDS011;51449;51.676;5.812;2023-04-24T13:23:34;3.43;;;1.60;;
58250;SDS011;51449;51.676;5.812;2023-04-24T13:25:56;3.07;;;1.50;;
58250;SDS011;51449;51.676;5.812;2023-04-24T13:28:18;4.97;;;1.60;;
58250;SDS011;51449;51.676;5.812;2023-04-24T13:30:40;4.23;;;1.50;;
58250;SDS011;51449;51.676;5.812;2023-04-24T13:33:02;2.97;;;1.60;;
58250;SDS011;51449;51.676;5.812;2023-04-24T13:35:24;2.63;;;1.40;;
58250;SDS011;51449;51.676;5.812;2023-04-24T13:37:46;3.27;;;1.60;;
58250;SDS011;51449;51.676;5.812;2023-04-24T13:40:08;2.90;;;1.50;;
58250;SDS011;51449;51.676;5.812;2023-04-24T13:42:30;2.83;;;1.63;;
58250;SDS011;51449;51.676;5.812;2023-04-24T13:44:52;3.27;;;1.80;;
58250;SDS011;51449;51.676;5.812;2023-04-24T13:47:15;3.60;;;1.70;;
58250;SDS011;51449;51.676;5.812;2023-04-24T13:49:36;1.93;;;1.40;;
58250;SDS011;51449;51.676;5.812;2023-04-24T13:51:58;4.87;;;2.10;;
58250;SDS011;51449;51.676;5.812;2023-04-24T13:54:20;2.90;;;1.60;;
58250;SDS011;51449;51.676;5.812;2023-04-24T13:56:43;2.90;;;1.83;;
58250;SDS011;51449;51.676;5.812;2023-04-24T13:59:05;4.57;;;1.87;;
58250;SDS011;51449;51.676;5.812;2023-04-24T14:01:27;5.00;;;1.80;;
58250;SDS011;51449;51.676;5.812;2023-04-24T14:03:49;4.30;;;1.93;;
58250;SDS011;51449;51.676;5.812;2023-04-24T14:06:11;5.63;;;2.50;;
58250;SDS011;51449;51.676;5.812;2023-04-24T14:08:33;3.60;;;1.90;;
58250;SDS011;51449;51.676;5.812;2023-04-24T14:10:55;4.83;;;2.30;;
58250;SDS011;51449;51.676;5.812;2023-04-24T14:13:17;2.50;;;2.00;;
58250;SDS011;51449;51.676;5.812;2023-04-24T14:15:39;3.30;;;1.70;;
58250;SDS011;51449;51.676;5.812;2023-04-24T14:18:00;2.90;;;1.83;;
58250;SDS011;51449;51.676;5.812;2023-04-24T14:20:25;5.32;;;2.30;;
58250;SDS011;51449;51.676;5.812;2023-04-24T14:22:47;2.50;;;1.50;;
58250;SDS011;51449;51.676;5.812;2023-04-24T14:25:09;4.83;;;1.40;;
58250;SDS011;51449;51.676;5.812;2023-04-24T14:27:33;2.30;;;1.20;;
58250;SDS011;51449;51.676;5.812;2023-04-24T14:29:55;5.63;;;2.30;;
58250;SDS011;51449;51.676;5.812;2023-04-24T14:32:17;3.20;;;1.60;;
58250;SDS011;51449;51.676;5.812;2023-04-24T14:34:40;2.30;;;1.60;;
58250;SDS011;51449;51.676;5.812;2023-04-24T14:37:02;3.80;;;1.90;;
58250;SDS011;51449;51.676;5.812;2023-04-24T14:39:23;3.80;;;1.70;;
58250;SDS011;51449;51.676;5.812;2023-04-24T14:41:45;5.13;;;2.23;;
58250;SDS011;51449;51.676;5.812;2023-04-24T14:44:07;4.73;;;2.30;;
58250;SDS011;51449;51.676;5.812;2023-04-24T14:46:29;4.03;;;2.23;;
58250;SDS011;51449;51.676;5.812;2023-04-24T14:48:51;4.30;;;2.00;;